Time;durP1;ratioP1;P1;durP2;ratioP2;P2;SDS_P1;SDS_P2;PMS_P1;PMS_P2;Temp;Humidity;BMP_temperature;BMP_pressure;BME280_temperature;BME280_humidity;BME280_pressure;Samples;Min_cycle;Max_cycle;Signal;HPM_P1;HPM_P2
2023/12/23 00:01:43;;;;;;;2.97;0.52;;;;;;;;;;5006518;28;20096;-89
2023/12/23 00:04:14;;;;;;;0.17;0.17;;;;;;;;;;5006950;28;20041;-88
2023/12/23 00:06:41;;;;;;;0.13;0.13;;;;;;;;;;5024286;28;20120;-89
2023/12/23 00:09:08;;;;;;;0.20;0.20;;;;;;;;;;5026980;28;20140;-88
2023/12/23 00:11:36;;;;;;;0.13;0.13;;;;;;;;;;5025515;28;20053;-88
2023/12/23 00:14:03;;;;;;;0.20;0.20;;;;;;;;;;5027446;28;20103;-88
2023/12/23 00:16:31;;;;;;;0.17;0.17;;;;;;;;;;5025693;28;20084;-87
2023/12/23 00:18:58;;;;;;;0.57;0.38;;;;;;;;;;5025627;28;20128;-88
2023/12/23 00:21:26;;;;;;;0.30;0.30;;;;;;;;;;5025526;28;20087;-88
2023/12/23 00:23:53;;;;;;;0.38;0.30;;;;;;;;;;5030681;28;20526;-88
2023/12/23 00:26:21;;;;;;;0.10;0.10;;;;;;;;;;5006865;28;20037;-89
2023/12/23 00:28:50;;;;;;;3.13;0.35;;;;;;;;;;5012636;28;20053;-89
2023/12/23 00:31:20;;;;;;;0.25;0.20;;;;;;;;;;5037168;28;20064;-90
2023/12/23 00:33:51;;;;;;;0.70;0.25;;;;;;;;;;5038945;28;20037;-89
2023/12/23 00:36:19;;;;;;;0.45;0.40;;;;;;;;;;5023356;28;20072;-90
2023/12/23 00:38:47;;;;;;;0.40;0.40;;;;;;;;;;5034689;28;20089;-90
2023/12/23 00:41:24;;;;;;;0.20;0.20;;;;;;;;;;5048477;28;20041;-89
2023/12/23 00:43:52;;;;;;;0.55;0.30;;;;;;;;;;5035460;28;20030;-88
2023/12/23 00:46:20;;;;;;;0.10;0.10;;;;;;;;;;5028364;28;20036;-88
2023/12/23 00:48:47;;;;;;;0.10;0.10;;;;;;;;;;5026017;28;20050;-90
2023/12/23 00:51:15;;;;;;;0.47;0.20;;;;;;;;;;5027617;28;20025;-88
2023/12/23 00:53:43;;;;;;;0.10;0.10;;;;;;;;;;5047914;28;20076;-89
2023/12/23 00:56:20;;;;;;;0.30;0.28;;;;;;;;;;5046652;28;20051;-88
2023/12/23 00:58:48;;;;;;;0.13;0.13;;;;;;;;;;5041579;28;20046;-87
2023/12/23 01:01:15;;;;;;;0.20;0.20;;;;;;;;;;5045987;28;20073;-86
2023/12/23 01:03:45;;;;;;;0.08;0.08;;;;;;;;;;5025466;28;20050;-87
2023/12/23 01:06:13;;;;;;;0.10;0.10;;;;;;;;;;5050409;28;20093;-88
2023/12/23 01:08:40;;;;;;;0.40;0.40;;;;;;;;;;5054285;28;20120;-86
2023/12/23 01:11:09;;;;;;;0.28;0.28;;;;;;;;;;5031707;28;20045;-88
2023/12/23 01:13:37;;;;;;;0.65;0.30;;;;;;;;;;5034223;28;20047;-88
2023/12/23 01:16:05;;;;;;;0.20;0.20;;;;;;;;;;5037722;28;20021;-90
2023/12/23 01:18:32;;;;;;;2.05;0.40;;;;;;;;;;5034906;28;20033;-89
2023/12/23 01:21:00;;;;;;;1.17;0.30;;;;;;;;;;5027730;28;20074;-90
2023/12/23 01:23:27;;;;;;;2.42;0.40;;;;;;;;;;5031464;28;20198;-88
2023/12/23 01:25:54;;;;;;;0.10;0.10;;;;;;;;;;5037126;28;20103;-87
2023/12/23 01:28:22;;;;;;;0.55;0.20;;;;;;;;;;5035665;28;20125;-89
2023/12/23 01:30:49;;;;;;;0.28;0.28;;;;;;;;;;5051908;28;20098;-88
2023/12/23 01:33:16;;;;;;;0.10;0.10;;;;;;;;;;5052031;28;20037;-86
2023/12/23 01:35:44;;;;;;;0.13;0.13;;;;;;;;;;5052324;28;20060;-88
2023/12/23 01:38:11;;;;;;;0.25;0.20;;;;;;;;;;5048479;28;20106;-86
2023/12/23 01:40:40;;;;;;;0.65;0.40;;;;;;;;;;5035241;28;20030;-87
2023/12/23 01:43:07;;;;;;;0.10;0.10;;;;;;;;;;5034876;28;20089;-86
2023/12/23 01:45:34;;;;;;;0.35;0.35;;;;;;;;;;5047123;28;20036;-87
2023/12/23 01:48:03;;;;;;;0.38;0.38;;;;;;;;;;5057370;28;20022;-87
2023/12/23 01:50:30;;;;;;;0.43;0.43;;;;;;;;;;5056579;28;20048;-88
2023/12/23 01:53:00;;;;;;;1.30;0.30;;;;;;;;;;5057532;28;20029;-87
2023/12/23 01:55:28;;;;;;;0.10;0.10;;;;;;;;;;5033147;28;20041;-88
2023/12/23 01:57:55;;;;;;;0.20;0.20;;;;;;;;;;5034076;28;20045;-88
2023/12/23 02:00:23;;;;;;;0.10;0.10;;;;;;;;;;5045741;28;20056;-88
2023/12/23 02:02:50;;;;;;;2.17;0.32;;;;;;;;;;5035240;28;20038;-87
2023/12/23 02:05:19;;;;;;;1.55;0.40;;;;;;;;;;5033835;28;20035;-88
2023/12/23 02:07:47;;;;;;;0.10;0.10;;;;;;;;;;5058422;28;20035;-87
2023/12/23 02:10:14;;;;;;;0.17;0.17;;;;;;;;;;5052720;28;20101;-87
2023/12/23 02:12:49;;;;;;;0.17;0.17;;;;;;;;;;5053354;28;20025;-88
2023/12/23 02:15:31;;;;;;;0.20;0.20;;;;;;;;;;5036720;28;20037;-88
2023/12/23 02:17:59;;;;;;;0.75;0.30;;;;;;;;;;5055256;28;20052;-87
2023/12/23 02:20:28;;;;;;;0.40;0.10;;;;;;;;;;5031547;28;20034;-87
2023/12/23 02:22:55;;;;;;;0.20;0.20;;;;;;;;;;5044129;28;20041;-86
2023/12/23 02:25:23;;;;;;;0.13;0.13;;;;;;;;;;5034901;28;20062;-85
2023/12/23 02:27:53;;;;;;;0.20;0.20;;;;;;;;;;5034197;28;20513;-86
2023/12/23 02:30:21;;;;;;;0.20;0.10;;;;;;;;;;5017361;28;20129;-85
2023/12/23 02:32:50;;;;;;;0.10;0.10;;;;;;;;;;5007874;28;20212;-85
2023/12/23 02:35:17;;;;;;;0.20;0.20;;;;;;;;;;5022347;28;20718;-85
2023/12/23 02:37:45;;;;;;;0.10;0.10;;;;;;;;;;5024319;28;20065;-85
2023/12/23 02:40:13;;;;;;;0.10;0.10;;;;;;;;;;5008847;28;20049;-85
2023/12/23 02:42:40;;;;;;;0.10;0.10;;;;;;;;;;5026093;28;20054;-85
2023/12/23 02:45:08;;;;;;;0.10;0.10;;;;;;;;;;5025822;28;20538;-84
2023/12/23 02:47:35;;;;;;;0.10;0.10;;;;;;;;;;5024734;28;20058;-86
2023/12/23 02:50:03;;;;;;;0.20;0.20;;;;;;;;;;5021118;28;20045;-86
2023/12/23 02:52:30;;;;;;;0.30;0.30;;;;;;;;;;5011603;28;20048;-86
2023/12/23 02:54:58;;;;;;;0.10;0.10;;;;;;;;;;5007054;28;20104;-86
2023/12/23 02:57:25;;;;;;;0.17;0.17;;;;;;;;;;5000988;28;20053;-85
2023/12/23 02:59:53;;;;;;;0.10;0.10;;;;;;;;;;5022377;28;20050;-86
2023/12/23 03:02:20;;;;;;;0.10;0.10;;;;;;;;;;5026721;28;20037;-85
2023/12/23 03:04:47;;;;;;;0.20;0.20;;;;;;;;;;5024995;28;20075;-86
2023/12/23 03:07:14;;;;;;;0.10;0.10;;;;;;;;;;5011743;28;20041;-85
2023/12/23 03:09:42;;;;;;;0.10;0.10;;;;;;;;;;5022952;28;20719;-85
2023/12/23 03:12:09;;;;;;;0.10;0.10;;;;;;;;;;5022305;28;20157;-85
2023/12/23 03:14:37;;;;;;;0.10;0.10;;;;;;;;;;5002036;28;20038;-85
2023/12/23 03:17:04;;;;;;;0.10;0.10;;;;;;;;;;5004564;28;20053;-86
2023/12/23 03:19:32;;;;;;;0.10;0.10;;;;;;;;;;5027236;28;20057;-85
2023/12/23 03:21:59;;;;;;;0.10;0.10;;;;;;;;;;5004323;28;20038;-85
2023/12/23 03:24:26;;;;;;;0.10;0.10;;;;;;;;;;5027103;28;20137;-86
2023/12/23 03:26:53;;;;;;;0.45;0.20;;;;;;;;;;5028342;28;20033;-85
2023/12/23 03:29:21;;;;;;;0.08;0.08;;;;;;;;;;5025232;28;20045;-86
2023/12/23 03:31:48;;;;;;;0.10;0.10;;;;;;;;;;5027603;28;20141;-85
2023/12/23 03:34:16;;;;;;;0.10;0.10;;;;;;;;;;5024104;28;20474;-86
2023/12/23 03:36:43;;;;;;;0.10;0.10;;;;;;;;;;5022732;28;20107;-85
2023/12/23 03:39:11;;;;;;;0.10;0.10;;;;;;;;;;5024102;28;20053;-85
2023/12/23 03:41:38;;;;;;;0.10;0.10;;;;;;;;;;5007152;28;20050;-85
2023/12/23 03:44:06;;;;;;;0.10;0.10;;;;;;;;;;5025491;28;20041;-86
2023/12/23 03:46:33;;;;;;;0.10;0.10;;;;;;;;;;5019977;28;20045;-86
2023/12/23 03:49:01;;;;;;;0.10;0.10;;;;;;;;;;5026158;28;20053;-87
2023/12/23 03:51:28;;;;;;;0.10;0.10;;;;;;;;;;5023801;28;20053;-86
2023/12/23 03:53:56;;;;;;;0.10;0.10;;;;;;;;;;5037484;22;20327;-74
2023/12/23 03:56:24;;;;;;;0.20;0.20;;;;;;;;;;5029681;28;20045;-75
2023/12/23 03:58:52;;;;;;;0.75;0.17;;;;;;;;;;5008977;28;20033;-75
2023/12/23 04:01:20;;;;;;;0.10;0.10;;;;;;;;;;4973455;28;20248;-75
2023/12/23 04:03:48;;;;;;;0.10;0.10;;;;;;;;;;5009530;28;20257;-75
2023/12/23 04:06:17;;;;;;;0.10;0.10;;;;;;;;;;5019902;28;20041;-75
2023/12/23 04:08:45;;;;;;;0.22;0.22;;;;;;;;;;4973979;28;20526;-73
2023/12/23 04:11:13;;;;;;;0.10;0.10;;;;;;;;;;5001607;28;20041;-75
2023/12/23 04:13:41;;;;;;;0.10;0.10;;;;;;;;;;5000262;28;20557;-75
2023/12/23 04:16:09;;;;;;;0.20;0.20;;;;;;;;;;4983223;28;20099;-73
2023/12/23 04:18:40;;;;;;;0.10;0.10;;;;;;;;;;5019735;28;20057;-73
2023/12/23 04:21:09;;;;;;;0.10;0.10;;;;;;;;;;4993605;28;21163;-73
2023/12/23 04:23:38;;;;;;;0.10;0.10;;;;;;;;;;5016369;28;20541;-74
2023/12/23 04:26:07;;;;;;;0.10;0.10;;;;;;;;;;5021641;28;20135;-75
2023/12/23 04:28:35;;;;;;;0.10;0.10;;;;;;;;;;5014000;28;20568;-75
2023/12/23 04:31:02;;;;;;;0.00;0.00;;;;;;;;;;5015660;28;20085;-73
2023/12/23 04:33:31;;;;;;;0.00;0.00;;;;;;;;;;5015268;28;20041;-73
2023/12/23 04:35:59;;;;;;;0.17;0.17;;;;;;;;;;5018920;28;20133;-74
2023/12/23 04:38:28;;;;;;;0.10;0.10;;;;;;;;;;4998818;28;20128;-74
2023/12/23 04:40:55;;;;;;;0.10;0.10;;;;;;;;;;4999641;28;20052;-75
2023/12/23 04:43:23;;;;;;;0.10;0.10;;;;;;;;;;4997138;28;20091;-75
2023/12/23 04:45:51;;;;;;;0.10;0.10;;;;;;;;;;4992021;28;20252;-73
2023/12/23 04:48:19;;;;;;;0.10;0.10;;;;;;;;;;5020448;28;20045;-73
2023/12/23 04:50:47;;;;;;;1.65;0.20;;;;;;;;;;5015464;28;20081;-74
2023/12/23 04:53:15;;;;;;;0.10;0.10;;;;;;;;;;5001333;28;20142;-75
2023/12/23 04:55:44;;;;;;;0.10;0.10;;;;;;;;;;5016392;28;20057;-74
2023/12/23 04:58:12;;;;;;;0.10;0.10;;;;;;;;;;4994852;28;20049;-73
2023/12/23 05:00:39;;;;;;;0.10;0.10;;;;;;;;;;4986469;28;20060;-74
2023/12/23 05:03:07;;;;;;;0.08;0.08;;;;;;;;;;5013653;28;20045;-75
2023/12/23 05:05:35;;;;;;;0.10;0.10;;;;;;;;;;5021359;28;20045;-74
2023/12/23 05:08:03;;;;;;;0.20;0.20;;;;;;;;;;5013859;28;20100;-74
2023/12/23 05:10:31;;;;;;;0.00;0.00;;;;;;;;;;5016587;28;20384;-74
2023/12/23 05:12:59;;;;;;;0.10;0.10;;;;;;;;;;5015843;28;20404;-74
2023/12/23 05:15:27;;;;;;;0.25;0.17;;;;;;;;;;4998645;28;20422;-73
2023/12/23 05:17:54;;;;;;;0.20;0.20;;;;;;;;;;5015850;28;20042;-74
2023/12/23 05:20:22;;;;;;;0.10;0.10;;;;;;;;;;5019654;28;20045;-74
2023/12/23 05:22:51;;;;;;;0.10;0.10;;;;;;;;;;5001756;28;20041;-74
2023/12/23 05:25:19;;;;;;;0.28;0.28;;;;;;;;;;5017562;28;20236;-74
2023/12/23 05:27:47;;;;;;;0.10;0.10;;;;;;;;;;5016382;28;20061;-73
2023/12/23 05:30:16;;;;;;;0.10;0.10;;;;;;;;;;5001394;28;20052;-74
2023/12/23 05:32:44;;;;;;;0.20;0.20;;;;;;;;;;5019753;28;20048;-74
2023/12/23 05:35:12;;;;;;;0.10;0.10;;;;;;;;;;5013514;28;20555;-74
2023/12/23 05:37:40;;;;;;;0.10;0.10;;;;;;;;;;5017614;28;20434;-73
2023/12/23 05:40:09;;;;;;;0.10;0.10;;;;;;;;;;5013488;28;20072;-72
2023/12/23 05:42:36;;;;;;;0.10;0.10;;;;;;;;;;5016300;28;20057;-74
2023/12/23 05:45:04;;;;;;;0.10;0.10;;;;;;;;;;5019751;28;20414;-74
2023/12/23 05:47:32;;;;;;;0.13;0.13;;;;;;;;;;5014392;28;20435;-73
2023/12/23 05:50:00;;;;;;;0.75;0.65;;;;;;;;;;5011636;28;20068;-72
2023/12/23 05:52:28;;;;;;;0.10;0.10;;;;;;;;;;5012872;28;20049;-74
2023/12/23 05:54:56;;;;;;;0.15;0.15;;;;;;;;;;5013154;28;20560;-73
2023/12/23 05:57:24;;;;;;;0.10;0.10;;;;;;;;;;5000895;28;20399;-73
2023/12/23 05:59:51;;;;;;;0.10;0.10;;;;;;;;;;5012363;28;20049;-74
2023/12/23 06:02:22;;;;;;;0.10;0.10;;;;;;;;;;5015070;28;20117;-74
2023/12/23 06:04:50;;;;;;;0.10;0.10;;;;;;;;;;5019438;28;20076;-74
2023/12/23 06:07:17;;;;;;;0.28;0.28;;;;;;;;;;5018522;28;20609;-73
2023/12/23 06:09:45;;;;;;;0.55;0.50;;;;;;;;;;5014335;28;20418;-74
2023/12/23 06:12:13;;;;;;;0.10;0.10;;;;;;;;;;5014699;28;20045;-73
2023/12/23 06:14:41;;;;;;;0.10;0.10;;;;;;;;;;5016416;28;20037;-71
2023/12/23 06:17:09;;;;;;;0.28;0.28;;;;;;;;;;5018401;28;20130;-72
2023/12/23 06:19:37;;;;;;;0.10;0.10;;;;;;;;;;5022503;28;20053;-74
2023/12/23 06:22:05;;;;;;;0.10;0.10;;;;;;;;;;5004842;28;20073;-74
2023/12/23 06:24:32;;;;;;;0.15;0.15;;;;;;;;;;5020361;28;20904;-73
2023/12/23 06:27:00;;;;;;;0.10;0.10;;;;;;;;;;5013767;28;20041;-73
2023/12/23 06:29:30;;;;;;;0.10;0.10;;;;;;;;;;5017026;28;20690;-73
2023/12/23 06:31:59;;;;;;;0.52;0.20;;;;;;;;;;5017573;28;20049;-71
2023/12/23 06:34:27;;;;;;;0.35;0.35;;;;;;;;;;5023860;28;20057;-72
2023/12/23 06:36:55;;;;;;;0.10;0.10;;;;;;;;;;5017745;28;20075;-73
2023/12/23 06:39:24;;;;;;;0.10;0.10;;;;;;;;;;5020831;28;20116;-73
2023/12/23 06:41:52;;;;;;;0.20;0.20;;;;;;;;;;5016566;28;20132;-71
2023/12/23 06:44:20;;;;;;;0.10;0.10;;;;;;;;;;5021122;28;20556;-73
2023/12/23 06:46:48;;;;;;;0.22;0.22;;;;;;;;;;5018283;28;20369;-73
2023/12/23 06:49:17;;;;;;;0.73;0.30;;;;;;;;;;5020094;28;20046;-72
2023/12/23 06:51:45;;;;;;;0.10;0.10;;;;;;;;;;5022284;28;20060;-72
2023/12/23 06:54:13;;;;;;;0.10;0.10;;;;;;;;;;5022856;28;20440;-74
2023/12/23 06:56:41;;;;;;;0.40;0.40;;;;;;;;;;5017176;28;20042;-71
2023/12/23 06:59:12;;;;;;;0.08;0.08;;;;;;;;;;5011557;28;20475;-74
2023/12/23 07:01:40;;;;;;;0.10;0.10;;;;;;;;;;5001320;28;20049;-74
2023/12/23 07:04:08;;;;;;;0.08;0.08;;;;;;;;;;5016451;28;20049;-73
2023/12/23 07:06:37;;;;;;;0.85;0.55;;;;;;;;;;5016012;28;20045;-74
2023/12/23 07:09:05;;;;;;;0.88;0.20;;;;;;;;;;5017014;28;20080;-72
2023/12/23 07:11:36;;;;;;;0.00;0.00;;;;;;;;;;5015036;28;20337;-73
2023/12/23 07:14:03;;;;;;;0.22;0.22;;;;;;;;;;5002517;28;20053;-72
2023/12/23 07:16:34;;;;;;;0.10;0.10;;;;;;;;;;5014508;28;20058;-74
2023/12/23 07:19:02;;;;;;;0.20;0.20;;;;;;;;;;5019468;28;20103;-73
2023/12/23 07:21:30;;;;;;;0.10;0.10;;;;;;;;;;5019776;28;20053;-74
2023/12/23 07:23:58;;;;;;;0.52;0.50;;;;;;;;;;5014934;28;20081;-72
2023/12/23 07:26:26;;;;;;;0.13;0.13;;;;;;;;;;5012398;28;20127;-73
2023/12/23 07:28:53;;;;;;;0.10;0.10;;;;;;;;;;5011063;28;20124;-72
2023/12/23 07:31:21;;;;;;;0.20;0.20;;;;;;;;;;5013716;28;20052;-74
2023/12/23 07:33:49;;;;;;;1.08;0.40;;;;;;;;;;5011181;28;20054;-73
2023/12/23 07:36:20;;;;;;;0.13;0.13;;;;;;;;;;5021089;28;20052;-74
2023/12/23 07:38:47;;;;;;;0.10;0.10;;;;;;;;;;5013144;28;20080;-74
2023/12/23 07:41:15;;;;;;;0.20;0.20;;;;;;;;;;5023937;28;20045;-73
2023/12/23 07:43:45;;;;;;;0.20;0.20;;;;;;;;;;5005106;28;20041;-73
2023/12/23 07:46:13;;;;;;;0.17;0.15;;;;;;;;;;5015580;28;20404;-73
2023/12/23 07:48:41;;;;;;;0.20;0.20;;;;;;;;;;5022627;28;20081;-74
2023/12/23 07:51:09;;;;;;;0.10;0.10;;;;;;;;;;5017773;28;20055;-73
2023/12/23 07:53:37;;;;;;;0.40;0.40;;;;;;;;;;5022465;28;20494;-73
2023/12/23 07:56:07;;;;;;;0.15;0.15;;;;;;;;;;5016887;28;20523;-72
2023/12/23 07:58:35;;;;;;;0.10;0.10;;;;;;;;;;5021167;28;20068;-74
2023/12/23 08:01:05;;;;;;;0.10;0.10;;;;;;;;;;5012524;28;20150;-74
2023/12/23 08:03:33;;;;;;;2.80;1.73;;;;;;;;;;5016721;28;20140;-74
2023/12/23 08:06:01;;;;;;;0.28;0.28;;;;;;;;;;5020611;28;20465;-74
2023/12/23 08:08:29;;;;;;;0.40;0.40;;;;;;;;;;5017058;28;21526;-74
2023/12/23 08:11:04;;;;;;;0.95;0.73;;;;;;;;;;5021178;28;20406;-73
2023/12/23 08:13:36;;;;;;;0.22;0.22;;;;;;;;;;5022924;28;20140;-72
2023/12/23 08:16:04;;;;;;;0.15;0.15;;;;;;;;;;5009684;28;20427;-74
2023/12/23 08:18:35;;;;;;;0.10;0.10;;;;;;;;;;5017803;28;20092;-73
2023/12/23 08:21:03;;;;;;;0.17;0.17;;;;;;;;;;5002737;28;20071;-73
2023/12/23 08:23:33;;;;;;;0.30;0.30;;;;;;;;;;5020695;28;21244;-73
2023/12/23 08:26:01;;;;;;;0.10;0.10;;;;;;;;;;5017905;28;20041;-74
2023/12/23 08:28:31;;;;;;;0.10;0.10;;;;;;;;;;5021088;28;20873;-73
2023/12/23 08:30:59;;;;;;;0.43;0.43;;;;;;;;;;4974625;28;20046;-74
2023/12/23 08:33:34;;;;;;;0.50;0.50;;;;;;;;;;5013595;28;20057;-73
2023/12/23 08:36:02;;;;;;;0.10;0.10;;;;;;;;;;4997974;28;20081;-73
2023/12/23 08:38:32;;;;;;;5.38;0.50;;;;;;;;;;4996697;28;20064;-73
2023/12/23 08:41:00;;;;;;;1.10;0.70;;;;;;;;;;4991677;28;20060;-72
2023/12/23 08:43:28;;;;;;;0.30;0.30;;;;;;;;;;5011602;28;21356;-72
2023/12/23 08:46:03;;;;;;;0.30;0.30;;;;;;;;;;5005750;28;20042;-73
2023/12/23 08:48:30;;;;;;;0.17;0.17;;;;;;;;;;5018134;28;20041;-74
2023/12/23 08:50:58;;;;;;;0.10;0.10;;;;;;;;;;5021228;28;20041;-72
2023/12/23 08:53:33;;;;;;;0.30;0.30;;;;;;;;;;5024167;28;20131;-72
2023/12/23 08:56:03;;;;;;;0.60;0.60;;;;;;;;;;5020550;28;20045;-72
2023/12/23 08:58:32;;;;;;;0.10;0.10;;;;;;;;;;4996220;28;20128;-72
2023/12/23 09:01:02;;;;;;;0.32;0.32;;;;;;;;;;4971367;28;20590;-73
2023/12/23 09:03:32;;;;;;;0.30;0.30;;;;;;;;;;5016147;28;20096;-72
2023/12/23 09:06:00;;;;;;;0.32;0.20;;;;;;;;;;5022671;28;20045;-72
2023/12/23 09:08:31;;;;;;;0.40;0.20;;;;;;;;;;5023741;28;20638;-73
2023/12/23 09:11:05;;;;;;;0.20;0.20;;;;;;;;;;5016812;28;20049;-73
2023/12/23 09:13:35;;;;;;;0.88;0.20;;;;;;;;;;4997107;28;20076;-71
2023/12/23 09:16:05;;;;;;;0.10;0.10;;;;;;;;;;5005876;28;20049;-73
2023/12/23 09:18:33;;;;;;;0.10;0.10;;;;;;;;;;5011674;28;20454;-73
2023/12/23 09:21:01;;;;;;;0.30;0.30;;;;;;;;;;5015125;28;20096;-73
2023/12/23 09:23:29;;;;;;;0.30;0.30;;;;;;;;;;4998203;28;20049;-71
2023/12/23 09:25:56;;;;;;;0.20;0.20;;;;;;;;;;5004165;28;20050;-72
2023/12/23 09:28:24;;;;;;;0.00;0.00;;;;;;;;;;5015855;28;20129;-73
2023/12/23 09:30:52;;;;;;;0.20;0.20;;;;;;;;;;5006122;28;20356;-70
2023/12/23 09:33:20;;;;;;;0.25;0.25;;;;;;;;;;4954980;28;20073;-73
2023/12/23 09:35:48;;;;;;;0.10;0.10;;;;;;;;;;5003112;28;20045;-74
2023/12/23 09:38:15;;;;;;;0.52;0.28;;;;;;;;;;5013983;28;20500;-73
2023/12/23 09:40:43;;;;;;;0.20;0.20;;;;;;;;;;5015726;28;20159;-74
2023/12/23 09:43:11;;;;;;;0.40;0.40;;;;;;;;;;5015658;28;20550;-74
2023/12/23 09:45:40;;;;;;;0.10;0.10;;;;;;;;;;5021386;28;20041;-72
2023/12/23 09:48:08;;;;;;;0.13;0.13;;;;;;;;;;4976418;28;20511;-73
2023/12/23 09:50:41;;;;;;;0.20;0.20;;;;;;;;;;5035668;23;20097;-82
2023/12/23 09:53:46;;;;;;;0.30;0.28;;;;;;;;;;5033433;28;20096;-81
2023/12/23 09:56:17;;;;;;;0.60;0.60;;;;;;;;;;5017510;28;20132;-81
2023/12/23 09:59:30;;;;;;;0.30;0.30;;;;;;;;;;5012999;28;20163;-82
2023/12/23 10:02:19;;;;;;;0.20;0.20;;;;;;;;;;5042626;28;20053;-82
2023/12/23 10:05:40;;;;;;;0.10;0.10;;;;;;;;;;4948955;28;20307;-83
2023/12/23 10:08:18;;;;;;;0.38;0.30;;;;;;;;;;4970104;28;20051;-81
2023/12/23 10:11:06;;;;;;;0.45;0.28;;;;;;;;;;4956783;28;20129;-80
2023/12/23 10:14:31;;;;;;;2.33;0.30;;;;;;;;;;4980353;28;20064;-80
2023/12/23 10:17:36;;;;;;;0.20;0.20;;;;;;;;;;4976179;28;20043;-80
2023/12/23 10:20:15;;;;;;;0.28;0.28;;;;;;;;;;4971289;28;20043;-81
2023/12/23 10:23:14;;;;;;;0.30;0.30;;;;;;;;;;4967719;28;20061;-81
2023/12/23 10:25:55;;;;;;;0.20;0.20;;;;;;;;;;4972383;28;20680;-81
2023/12/23 10:29:02;;;;;;;0.50;0.50;;;;;;;;;;4972490;28;20046;-81
2023/12/23 10:31:54;;;;;;;0.73;0.63;;;;;;;;;;4970316;28;20039;-80
2023/12/23 10:34:50;;;;;;;0.47;0.47;;;;;;;;;;4970476;28;20129;-81
2023/12/23 10:37:28;;;;;;;0.65;0.50;;;;;;;;;;4958622;28;20426;-80
2023/12/23 10:40:51;;;;;;;0.20;0.20;;;;;;;;;;4978389;28;20058;-81
2023/12/23 10:43:39;;;;;;;;;;;;;;;;;;;;;
2023/12/23 10:46:26;;;;;;;0.35;0.22;;;;;;;;;;5043035;28;20048;-81
2023/12/23 10:49:07;;;;;;;0.10;0.10;;;;;;;;;;5034645;28;20079;-79
2023/12/23 10:52:20;;;;;;;0.20;0.20;;;;;;;;;;5041362;28;20131;-82
2023/12/23 10:55:27;;;;;;;0.30;0.30;;;;;;;;;;5006633;28;20056;-81
2023/12/23 10:58:16;;;;;;;0.20;0.20;;;;;;;;;;5020930;28;20047;-82
2023/12/23 11:01:34;;;;;;;0.20;0.20;;;;;;;;;;5031783;28;20130;-82
2023/12/23 11:04:26;;;;;;;0.17;0.17;;;;;;;;;;5043261;28;20130;-82
2023/12/23 11:07:14;;;;;;;0.50;0.50;;;;;;;;;;5033330;28;20294;-82
2023/12/23 11:10:02;;;;;;;0.20;0.20;;;;;;;;;;5043989;28;20052;-81
2023/12/23 11:12:48;;;;;;;0.10;0.10;;;;;;;;;;5035780;28;20052;-82
2023/12/23 11:15:40;;;;;;;0.13;0.13;;;;;;;;;;5024783;28;20052;-83
2023/12/23 11:18:26;;;;;;;0.10;0.10;;;;;;;;;;5041593;28;20718;-80
2023/12/23 11:21:17;;;;;;;0.20;0.20;;;;;;;;;;5014047;28;20054;-83
2023/12/23 11:24:25;;;;;;;0.65;0.65;;;;;;;;;;5035013;28;20541;-83
2023/12/23 11:26:54;;;;;;;0.20;0.20;;;;;;;;;;5043844;28;20072;-83
2023/12/23 11:29:22;;;;;;;0.25;0.25;;;;;;;;;;5049316;28;20096;-82
2023/12/23 11:31:50;;;;;;;1.15;0.70;;;;;;;;;;5055579;28;20107;-82
2023/12/23 11:34:19;;;;;;;0.20;0.20;;;;;;;;;;5043104;28;20125;-82
2023/12/23 11:36:47;;;;;;;0.20;0.20;;;;;;;;;;5046980;28;20087;-82
2023/12/23 11:39:16;;;;;;;0.15;0.10;;;;;;;;;;5034945;28;20222;-83
2023/12/23 11:41:46;;;;;;;0.20;0.20;;;;;;;;;;5038399;28;20056;-82
2023/12/23 11:44:15;;;;;;;0.52;0.40;;;;;;;;;;5043811;28;20097;-82
2023/12/23 11:46:44;;;;;;;0.20;0.20;;;;;;;;;;5040726;28;20525;-82
2023/12/23 11:49:11;;;;;;;0.85;0.30;;;;;;;;;;5036768;28;20049;-82
2023/12/23 11:51:39;;;;;;;0.20;0.20;;;;;;;;;;5045408;28;20043;-82
2023/12/23 11:54:09;;;;;;;0.32;0.32;;;;;;;;;;5042451;28;20052;-83
2023/12/23 11:56:37;;;;;;;2.75;0.40;;;;;;;;;;5039251;28;20038;-81
2023/12/23 11:59:06;;;;;;;0.63;0.30;;;;;;;;;;5037243;28;20049;-82
2023/12/23 12:01:33;;;;;;;0.40;0.40;;;;;;;;;;5042245;28;20071;-80
2023/12/23 12:04:00;;;;;;;0.82;0.38;;;;;;;;;;5035958;28;20470;-81
2023/12/23 12:06:28;;;;;;;0.65;0.30;;;;;;;;;;5030474;28;20111;-81
2023/12/23 12:08:58;;;;;;;0.25;0.25;;;;;;;;;;5032123;28;20132;-81
2023/12/23 12:11:28;;;;;;;0.30;0.25;;;;;;;;;;5023821;28;20045;-80
2023/12/23 12:13:58;;;;;;;0.45;0.30;;;;;;;;;;5041286;28;20047;-80
2023/12/23 12:16:26;;;;;;;0.20;0.20;;;;;;;;;;5045640;28;20052;-81
2023/12/23 12:18:53;;;;;;;0.30;0.30;;;;;;;;;;5049060;28;20119;-81
2023/12/23 12:21:21;;;;;;;5.65;0.80;;;;;;;;;;5018313;28;20052;-80
2023/12/23 12:23:48;;;;;;;0.75;0.30;;;;;;;;;;5040242;28;20041;-81
2023/12/23 12:26:16;;;;;;;0.20;0.20;;;;;;;;;;5043485;28;20033;-80
2023/12/23 12:28:43;;;;;;;0.40;0.40;;;;;;;;;;5027284;28;20045;-82
2023/12/23 12:31:14;;;;;;;0.38;0.38;;;;;;;;;;5018213;28;20049;-81
2023/12/23 12:33:42;;;;;;;0.20;0.20;;;;;;;;;;5036076;28;20048;-81
2023/12/23 12:36:13;;;;;;;0.28;0.20;;;;;;;;;;5044083;28;20510;-81
2023/12/23 12:38:42;;;;;;;0.50;0.50;;;;;;;;;;5040952;28;20052;-81
2023/12/23 12:41:12;;;;;;;0.52;0.52;;;;;;;;;;5036681;28;20076;-81
2023/12/23 12:43:41;;;;;;;0.20;0.20;;;;;;;;;;5039208;28;20044;-81
2023/12/23 12:46:09;;;;;;;0.30;0.30;;;;;;;;;;5021778;28;20414;-81
2023/12/23 12:48:37;;;;;;;0.30;0.30;;;;;;;;;;5044326;28;20045;-80
2023/12/23 12:51:05;;;;;;;0.75;0.40;;;;;;;;;;5049253;28;20147;-81
2023/12/23 12:53:34;;;;;;;0.40;0.40;;;;;;;;;;5009573;28;20170;-80
2023/12/23 12:56:11;;;;;;;0.38;0.38;;;;;;;;;;5034065;28;20048;-81
2023/12/23 12:58:40;;;;;;;0.30;0.30;;;;;;;;;;5037093;28;20112;-81
2023/12/23 13:01:08;;;;;;;0.40;0.30;;;;;;;;;;5034653;28;20100;-81
2023/12/23 13:03:36;;;;;;;0.98;0.32;;;;;;;;;;5045751;28;20049;-81
2023/12/23 13:06:03;;;;;;;0.93;0.43;;;;;;;;;;5033420;28;20042;-80
2023/12/23 13:08:31;;;;;;;0.50;0.50;;;;;;;;;;5038716;28;20041;-81
2023/12/23 13:10:59;;;;;;;0.20;0.20;;;;;;;;;;5038098;28;20247;-81
2023/12/23 13:13:27;;;;;;;0.10;0.10;;;;;;;;;;5020454;28;20060;-82
2023/12/23 13:15:55;;;;;;;0.15;0.15;;;;;;;;;;5036041;28;20532;-82
2023/12/23 13:18:26;;;;;;;0.88;0.55;;;;;;;;;;5039462;28;20041;-83
2023/12/23 13:20:53;;;;;;;0.65;0.60;;;;;;;;;;5041358;28;20077;-81
2023/12/23 13:23:21;;;;;;;0.30;0.30;;;;;;;;;;5043933;28;20048;-81
2023/12/23 13:25:49;;;;;;;0.22;0.22;;;;;;;;;;5026749;28;20154;-82
2023/12/23 13:28:16;;;;;;;3.92;0.30;;;;;;;;;;5018363;28;20649;-82
2023/12/23 13:30:43;;;;;;;1.33;0.20;;;;;;;;;;5029079;28;20048;-82
2023/12/23 13:33:11;;;;;;;0.20;0.20;;;;;;;;;;5059081;28;20067;-82
2023/12/23 13:35:39;;;;;;;0.20;0.20;;;;;;;;;;5044373;28;20072;-80
2023/12/23 13:38:06;;;;;;;0.20;0.20;;;;;;;;;;5048946;28;20048;-81
2023/12/23 13:40:34;;;;;;;0.20;0.20;;;;;;;;;;5046969;28;20136;-84
2023/12/23 13:43:01;;;;;;;0.40;0.30;;;;;;;;;;5034554;28;20172;-82
2023/12/23 13:45:29;;;;;;;0.73;0.47;;;;;;;;;;5032077;28;20049;-82
2023/12/23 13:47:56;;;;;;;0.40;0.40;;;;;;;;;;5023937;28;20037;-82
2023/12/23 13:50:23;;;;;;;0.32;0.32;;;;;;;;;;5035088;28;20041;-82
2023/12/23 13:52:51;;;;;;;0.15;0.15;;;;;;;;;;5056635;28;20042;-81
2023/12/23 13:55:19;;;;;;;0.10;0.10;;;;;;;;;;5057262;28;20037;-81
2023/12/23 13:57:46;;;;;;;0.40;0.40;;;;;;;;;;5055502;28;20071;-82
2023/12/23 14:00:14;;;;;;;0.30;0.30;;;;;;;;;;5038128;23;21517;-72
2023/12/23 14:02:42;;;;;;;0.20;0.20;;;;;;;;;;5028997;28;20057;-73
2023/12/23 14:05:10;;;;;;;0.28;0.28;;;;;;;;;;5011115;28;20525;-74
2023/12/23 14:07:38;;;;;;;5.47;0.45;;;;;;;;;;5030944;28;20049;-74
2023/12/23 14:10:07;;;;;;;0.25;0.25;;;;;;;;;;5030937;28;20522;-73
2023/12/23 14:12:35;;;;;;;0.25;0.25;;;;;;;;;;5031057;28;20129;-73
2023/12/23 14:15:03;;;;;;;0.20;0.20;;;;;;;;;;5015175;28;20087;-73
2023/12/23 14:17:32;;;;;;;0.30;0.30;;;;;;;;;;5030324;28;20063;-73
2023/12/23 14:20:00;;;;;;;0.32;0.22;;;;;;;;;;5029784;28;20384;-73
2023/12/23 14:22:27;;;;;;;0.20;0.20;;;;;;;;;;5029665;28;20088;-72
2023/12/23 14:24:55;;;;;;;0.40;0.40;;;;;;;;;;5024316;28;20097;-73
2023/12/23 14:27:23;;;;;;;0.20;0.20;;;;;;;;;;5009743;28;20100;-73
2023/12/23 14:29:50;;;;;;;0.68;0.40;;;;;;;;;;5008978;28;20124;-74
2023/12/23 14:32:18;;;;;;;0.20;0.20;;;;;;;;;;5008933;28;20050;-73
2023/12/23 14:34:46;;;;;;;0.25;0.25;;;;;;;;;;5020955;28;20113;-73
2023/12/23 14:37:14;;;;;;;0.10;0.10;;;;;;;;;;5029540;28;20064;-73
2023/12/23 14:39:42;;;;;;;0.17;0.17;;;;;;;;;;5027342;28;20053;-74
2023/12/23 14:42:09;;;;;;;0.22;0.20;;;;;;;;;;5029386;28;20057;-73
2023/12/23 14:44:37;;;;;;;0.17;0.17;;;;;;;;;;5029624;28;20041;-73
2023/12/23 14:47:05;;;;;;;0.30;0.30;;;;;;;;;;5029731;28;20466;-73
2023/12/23 14:49:33;;;;;;;2.05;0.30;;;;;;;;;;5029954;28;20057;-73
2023/12/23 14:52:01;;;;;;;0.20;0.20;;;;;;;;;;5014253;28;20128;-73
2023/12/23 14:54:29;;;;;;;0.20;0.20;;;;;;;;;;5009720;28;20069;-72
2023/12/23 14:56:56;;;;;;;0.45;0.45;;;;;;;;;;5009696;28;20058;-72
2023/12/23 14:59:27;;;;;;;0.20;0.20;;;;;;;;;;5026633;28;20076;-72
2023/12/23 15:01:56;;;;;;;0.22;0.22;;;;;;;;;;5029377;28;20073;-72
2023/12/23 15:04:24;;;;;;;0.85;0.30;;;;;;;;;;5029383;28;20639;-72